createdAt,value
2023-05-05T00:01:14.944Z,101770.91
2023-05-05T00:03:42.628Z,101775.25
2023-05-05T00:06:09.162Z,101776.97
2023-05-05T00:08:35.572Z,101782.16
2023-05-05T00:11:01.930Z,101783.94
2023-05-05T00:13:28.241Z,101783.94
2023-05-05T00:15:54.663Z,101784.81
2023-05-05T00:18:21.335Z,101788.34
2023-05-05T00:20:47.820Z,101792.66
2023-05-05T00:23:14.628Z,101795.31
2023-05-05T00:25:41.048Z,101797.94
2023-05-05T00:28:07.474Z,101795.31
2023-05-05T00:30:34.513Z,101797.03
2023-05-05T00:33:01.432Z,101794.38
2023-05-05T00:35:27.810Z,101798.72
2023-05-05T00:37:54.689Z,101790.03
2023-05-05T00:40:21.362Z,101802.19
2023-05-05T00:42:48.259Z,101796.97
2023-05-05T00:45:15.321Z,101800.47
2023-05-05T00:47:42.030Z,101797.94
2023-05-05T00:50:09.463Z,101800.56
2023-05-05T00:52:36.261Z,101797.97
2023-05-05T00:55:02.974Z,101796.25
2023-05-05T00:57:29.357Z,101803.38
2023-05-05T00:59:56.258Z,101795.44
2023-05-05T01:02:22.844Z,101796.31
2023-05-05T01:04:49.251Z,101797.19
2023-05-05T01:07:26.746Z,101796.28
2023-05-05T01:10:07.629Z,101798.09
2023-05-05T01:12:46.657Z,101798.94
2023-05-05T01:15:22.828Z,101795.44
2023-05-05T01:17:57.229Z,101801.59
2023-05-05T01:20:50.302Z,101800.72
2023-05-05T01:23:26.830Z,101807.72
2023-05-05T01:25:53.154Z,101807.72
2023-05-05T01:28:24.455Z,101808.59
2023-05-05T01:31:09.638Z,101799.91
2023-05-05T01:33:36.987Z,101802.50
2023-05-05T01:36:04.962Z,101805.13
2023-05-05T01:38:34.908Z,101797.34
2023-05-05T01:41:05.281Z,101804.34
2023-05-05T01:43:32.084Z,101803.44
2023-05-05T01:45:58.486Z,101806.91
2023-05-05T01:48:24.837Z,101795.63
2023-05-05T01:50:52.085Z,101793.88
2023-05-05T01:53:19.071Z,101799.97
2023-05-05T01:55:46.211Z,101803.47
2023-05-05T01:58:12.532Z,101804.34
2023-05-05T02:00:38.932Z,101800.84
2023-05-05T02:03:06.487Z,101798.22
2023-05-05T02:05:32.903Z,101791.25
2023-05-05T02:08:00.031Z,101794.78
2023-05-05T02:10:26.709Z,101797.41
2023-05-05T02:12:53.175Z,101793.06
2023-05-05T02:15:20.003Z,101792.16
2023-05-05T02:17:46.401Z,101790.38
2023-05-05T02:20:12.942Z,101800.84
2023-05-05T02:22:40.949Z,101794.78
2023-05-05T02:25:07.671Z,101800.88
2023-05-05T02:27:34.235Z,101801.75
2023-05-05T02:30:02.523Z,101795.66
2023-05-05T02:32:33.961Z,101791.28
2023-05-05T02:35:11.119Z,101802.66
2023-05-05T02:37:37.494Z,101794.84
2023-05-05T02:40:07.442Z,101797.44
2023-05-05T02:42:35.741Z,101808.75
2023-05-05T02:45:07.793Z,101800.06
2023-05-05T02:47:35.374Z,101797.44
2023-05-05T02:50:02.008Z,101798.31
2023-05-05T02:52:28.351Z,101794.84
2023-05-05T02:54:54.646Z,101803.59
2023-05-05T02:57:21.223Z,101798.38
2023-05-05T02:59:53.294Z,101803.59
2023-05-05T03:02:22.606Z,101800.13
2023-05-05T03:04:49.859Z,101807.09
2023-05-05T03:07:20.982Z,101810.56
2023-05-05T03:09:50.923Z,101816.66
2023-05-05T03:12:19.060Z,101811.47
2023-05-05T03:14:45.472Z,101810.59
2023-05-05T03:17:12.556Z,101819.28
2023-05-05T03:19:40.600Z,101828.88
2023-05-05T03:22:06.994Z,101827.13
2023-05-05T03:24:33.449Z,101820.19
2023-05-05T03:26:59.775Z,101829.75
2023-05-05T03:29:26.090Z,101828.03
2023-05-05T03:31:52.571Z,101825.41
2023-05-05T03:34:19.067Z,101827.16
2023-05-05T03:37:02.346Z,101828.88
2023-05-05T03:39:28.713Z,101836.72
2023-05-05T03:41:55.025Z,101841.94
2023-05-05T03:44:21.808Z,101847.19
2023-05-05T03:46:48.189Z,101848.91
2023-05-05T03:49:14.610Z,101850.66
2023-05-05T03:51:41.017Z,101851.53
2023-05-05T03:54:07.348Z,101865.44
2023-05-05T03:56:33.656Z,101861.09
2023-05-05T03:59:00.257Z,101860.19
2023-05-05T04:01:26.779Z,101866.31
2023-05-05T04:03:53.286Z,101863.69
2023-05-05T04:06:19.694Z,101864.56
2023-05-05T04:08:46.352Z,101866.31
2023-05-05T04:11:12.698Z,101873.22
2023-05-05T04:13:39.092Z,101869.78
2023-05-05T04:16:05.596Z,101874.09
2023-05-05T04:18:32.007Z,101868.88
2023-05-05T04:20:58.400Z,101873.22
2023-05-05T04:23:24.737Z,101873.22
2023-05-05T04:25:51.085Z,101871.47
2023-05-05T04:28:18.203Z,101876.72
2023-05-05T04:30:46.450Z,101881.13
2023-05-05T04:33:13.233Z,101885.44
2023-05-05T04:35:39.590Z,101887.16
2023-05-05T04:38:05.962Z,101886.31
2023-05-05T04:40:32.332Z,101890.66
2023-05-05T04:42:58.694Z,101886.28
2023-05-05T04:45:25.517Z,101896.78
2023-05-05T04:47:51.893Z,101898.47
2023-05-05T04:50:18.284Z,101895.00
2023-05-05T04:52:44.665Z,101899.38
2023-05-05T04:55:11.631Z,101908.94
2023-05-05T04:57:38.124Z,101914.19
2023-05-05T05:00:05.407Z,101907.22
2023-05-05T05:02:32.121Z,101900.22
2023-05-05T05:04:58.703Z,101914.16
2023-05-05T05:07:25.912Z,101917.66
2023-05-05T05:09:52.296Z,101914.19
2023-05-05T05:12:18.669Z,101915.03
2023-05-05T05:14:45.094Z,101915.88
2023-05-05T05:17:11.458Z,101906.28
2023-05-05T05:19:37.857Z,101918.47
2023-05-05T05:22:04.225Z,101926.31
2023-05-05T05:24:30.787Z,101929.81
2023-05-05T05:26:57.519Z,101927.16
2023-05-05T05:29:24.040Z,101930.66
2023-05-05T05:31:50.503Z,101941.09
2023-05-05T05:34:16.998Z,101934.16
2023-05-05T05:36:43.357Z,101931.53
2023-05-05T05:39:09.676Z,101938.50
2023-05-05T05:41:36.083Z,101935.00
2023-05-05T05:44:02.428Z,101934.97
2023-05-05T05:46:28.844Z,101934.97
2023-05-05T05:48:55.366Z,101939.31
2023-05-05T05:51:21.687Z,101937.53
2023-05-05T05:53:48.051Z,101934.91
2023-05-05T05:56:14.389Z,101951.41
2023-05-05T05:58:40.832Z,101933.06
2023-05-05T06:01:07.170Z,101937.41
2023-05-05T06:03:33.864Z,101940.84
2023-05-05T06:06:00.317Z,101942.47
2023-05-05T06:08:26.855Z,101941.66
2023-05-05T06:10:53.275Z,101939.84
2023-05-05T06:13:19.640Z,101942.47
2023-05-05T06:15:46.275Z,101946.66
2023-05-05T06:18:12.800Z,101949.06
2023-05-05T06:20:39.256Z,101956.78
2023-05-05T06:23:05.830Z,101954.09
2023-05-05T06:25:32.176Z,101955.19
2023-05-05T06:27:58.552Z,101965.44
2023-05-05T06:30:26.129Z,101966.25
2023-05-05T06:32:54.248Z,101963.66
2023-05-05T06:35:20.976Z,101961.09
2023-05-05T06:37:47.315Z,101966.31
2023-05-05T06:40:13.737Z,101965.56
2023-05-05T06:42:40.090Z,101967.97
2023-05-05T06:45:06.652Z,101969.00
2023-05-05T06:47:33.090Z,101963.66
2023-05-05T06:49:59.429Z,101967.91
2023-05-05T06:52:25.902Z,101964.72
2023-05-05T06:54:52.316Z,101977.50
2023-05-05T06:57:18.773Z,101970.06
2023-05-05T06:59:45.092Z,101964.59
2023-05-05T07:02:11.498Z,101963.03
2023-05-05T07:04:37.875Z,101967.81
2023-05-05T07:07:04.218Z,101982.50
2023-05-05T07:09:30.626Z,101976.16
2023-05-05T07:11:56.993Z,101978.91
2023-05-05T07:14:24.467Z,101971.44
2023-05-05T07:16:51.528Z,101975.69
2023-05-05T07:19:18.079Z,101982.56
2023-05-05T07:21:44.481Z,101973.63
2023-05-05T07:24:10.946Z,101977.88
2023-05-05T07:26:37.282Z,101987.22
2023-05-05T07:29:05.376Z,101987.09
2023-05-05T07:31:31.808Z,101980.00
2023-05-05T07:33:58.224Z,101986.66
2023-05-05T07:36:24.565Z,101982.38
2023-05-05T07:38:51.075Z,101969.88
2023-05-05T07:41:18.433Z,101986.28
2023-05-05T07:43:44.879Z,101984.94
2023-05-05T07:46:11.690Z,101989.22
2023-05-05T07:48:41.474Z,101988.50
2023-05-05T07:51:08.220Z,101980.69
2023-05-05T07:53:34.600Z,101996.03
2023-05-05T07:56:00.952Z,101999.22
2023-05-05T07:58:27.290Z,102000.78
2023-05-05T08:00:53.727Z,102002.28
2023-05-05T08:03:24.296Z,102011.03
2023-05-05T08:05:53.092Z,102009.28
2023-05-05T08:08:19.513Z,102011.03
2023-05-05T08:10:45.830Z,102008.25
2023-05-05T08:13:12.254Z,102017.34
2023-05-05T08:15:38.818Z,102014.44
2023-05-05T08:18:05.240Z,102015.53
2023-05-05T08:20:31.630Z,102025.69
2023-05-05T08:22:58.042Z,102018.66
2023-05-05T08:25:26.825Z,102009.00
2023-05-05T08:27:53.159Z,102010.31
2023-05-05T08:30:21.494Z,102021.16
2023-05-05T08:32:47.927Z,102016.53
2023-05-05T08:35:14.498Z,102019.75
2023-05-05T08:37:40.997Z,102017.41
2023-05-05T08:40:07.676Z,102021.56
2023-05-05T08:42:38.400Z,102026.56
2023-05-05T08:45:06.277Z,102020.75
2023-05-05T08:47:32.904Z,102025.81
2023-05-05T08:49:59.513Z,102026.72
2023-05-05T08:52:25.934Z,102016.16
2023-05-05T08:54:57.720Z,102023.69
2023-05-05T08:57:25.925Z,102020.94
2023-05-05T08:59:52.330Z,102020.06
2023-05-05T09:02:18.774Z,102019.53
2023-05-05T09:04:45.135Z,102023.53
2023-05-05T09:07:11.530Z,102026.47
2023-05-05T09:09:37.947Z,102026.03
2023-05-05T09:12:04.916Z,102019.19
2023-05-05T09:14:31.268Z,102021.22
2023-05-05T09:16:57.745Z,102032.59
2023-05-05T09:19:25.110Z,102030.56
2023-05-05T09:21:51.528Z,102025.53
2023-05-05T09:24:18.653Z,102024.34
2023-05-05T09:26:47.716Z,102024.81
2023-05-05T09:29:17.587Z,102034.38
2023-05-05T09:31:43.914Z,102036.69
2023-05-05T09:34:14.144Z,102037.94
2023-05-05T09:36:41.994Z,102034.94
2023-05-05T09:39:08.351Z,102033.44
2023-05-05T09:41:38.604Z,102027.03
2023-05-05T09:44:05.174Z,102037.97
2023-05-05T09:46:32.032Z,102032.84
2023-05-05T09:49:21.420Z,102040.19
2023-05-05T09:51:48.048Z,102043.88
2023-05-05T09:54:24.330Z,102038.75
2023-05-05T09:56:53.463Z,102038.31
2023-05-05T09:59:19.951Z,102047.97
2023-05-05T10:01:46.627Z,102041.88
2023-05-05T10:04:22.551Z,102037.47
2023-05-05T10:06:48.958Z,102040.94
2023-05-05T10:09:15.364Z,102044.78
2023-05-05T10:11:41.994Z,102043.44
2023-05-05T10:14:08.476Z,102041.41
2023-05-05T10:16:35.766Z,102055.09
2023-05-05T10:19:02.661Z,102045.03
2023-05-05T10:21:31.594Z,102050.09
2023-05-05T10:23:58.589Z,102043.53
2023-05-05T10:26:24.955Z,102046.53
2023-05-05T10:28:52.799Z,102043.06
2023-05-05T10:31:25.739Z,102033.84
2023-05-05T10:33:55.245Z,102036.41
2023-05-05T10:36:21.943Z,102040.03
2023-05-05T10:38:48.289Z,102041.72
2023-05-05T10:41:14.674Z,102044.00
2023-05-05T10:43:41.702Z,102042.78
2023-05-05T10:46:08.171Z,102040.34
2023-05-05T10:48:36.735Z,102042.84
2023-05-05T10:51:09.182Z,102040.59
2023-05-05T10:53:44.702Z,102052.25
2023-05-05T10:56:11.116Z,102039.59
2023-05-05T10:58:58.391Z,102047.53
2023-05-05T11:01:32.674Z,102035.16
2023-05-05T11:04:18.142Z,102032.22
2023-05-05T11:07:03.532Z,102026.97
2023-05-05T11:09:29.873Z,102021.97
2023-05-05T11:12:02.724Z,102017.53
2023-05-05T11:14:29.115Z,102021.06
2023-05-05T11:16:55.887Z,102021.75
2023-05-05T11:19:42.263Z,102019.88
2023-05-05T11:22:08.738Z,102020.31
2023-05-05T11:24:36.294Z,102025.19
2023-05-05T11:27:03.382Z,102016.66
2023-05-05T11:29:50.268Z,102011.09
2023-05-05T11:32:18.166Z,102009.94
2023-05-05T11:34:51.007Z,102016.56
2023-05-05T11:37:17.446Z,102017.16
2023-05-05T11:39:47.388Z,102006.03
2023-05-05T11:42:24.911Z,102023.56
2023-05-05T11:44:51.655Z,102012.59
2023-05-05T11:47:20.973Z,102014.88
2023-05-05T11:49:47.394Z,102015.09
2023-05-05T11:52:14.378Z,102019.22
2023-05-05T11:54:50.367Z,102018.56
2023-05-05T11:57:19.370Z,102019.28
2023-05-05T12:00:04.913Z,102012.97
2023-05-05T12:02:31.543Z,102005.88
2023-05-05T12:04:58.583Z,102008.19
2023-05-05T12:07:25.927Z,102010.66
2023-05-05T12:09:52.821Z,102008.66
2023-05-05T12:12:19.496Z,102008.09
2023-05-05T12:14:47.264Z,102011.19
2023-05-05T12:17:13.727Z,102004.41
2023-05-05T12:19:46.409Z,101994.22
2023-05-05T12:22:17.816Z,102000.72
2023-05-05T12:24:44.150Z,101999.81
2023-05-05T12:27:11.091Z,102004.00
2023-05-05T12:29:37.473Z,102007.59
2023-05-05T12:32:04.172Z,101993.13
2023-05-05T12:34:31.230Z,102001.34
2023-05-05T12:36:57.663Z,102005.72
2023-05-05T12:39:33.975Z,102014.66
2023-05-05T12:42:03.973Z,102008.81
2023-05-05T12:44:36.880Z,102003.75
2023-05-05T12:47:03.589Z,102000.44
2023-05-05T12:49:30.269Z,101993.66
2023-05-05T12:51:57.058Z,101994.44
2023-05-05T12:54:24.501Z,102000.59
2023-05-05T12:56:51.287Z,101994.03
2023-05-05T12:59:24.088Z,102000.88
2023-05-05T13:01:50.778Z,101990.75
2023-05-05T13:04:17.489Z,101989.41
2023-05-05T13:06:44.833Z,101992.78
2023-05-05T13:09:27.016Z,101988.09
2023-05-05T13:11:54.576Z,101995.22
2023-05-05T13:14:21.209Z,101991.72
2023-05-05T13:16:47.585Z,101995.31
2023-05-05T13:19:13.930Z,101982.72
2023-05-05T13:21:40.306Z,101977.50
2023-05-05T13:24:21.366Z,101984.03
2023-05-05T13:26:52.628Z,101982.19
2023-05-05T13:29:19.309Z,101985.81
2023-05-05T13:31:45.818Z,101981.53
2023-05-05T13:34:12.266Z,101975.19
2023-05-05T13:36:38.662Z,101974.78
2023-05-05T13:39:05.070Z,101967.06
2023-05-05T13:41:31.475Z,101967.00
2023-05-05T13:43:57.899Z,101961.59
2023-05-05T13:46:24.234Z,101961.63
2023-05-05T13:48:56.061Z,101958.13
2023-05-05T13:51:22.925Z,101952.94
2023-05-05T13:53:49.693Z,101954.22
2023-05-05T13:56:17.770Z,101945.78
2023-05-05T13:58:44.293Z,101943.06
2023-05-05T14:01:11.041Z,101932.53
2023-05-05T14:03:39.518Z,101941.06
2023-05-05T14:06:06.648Z,101953.59
2023-05-05T14:08:32.958Z,101949.72
2023-05-05T14:10:59.350Z,101954.56
2023-05-05T14:13:25.894Z,101964.34
2023-05-05T14:15:52.748Z,101953.03
2023-05-05T14:18:19.132Z,101961.06
2023-05-05T14:20:45.496Z,101954.84
2023-05-05T14:23:12.036Z,101952.00
2023-05-05T14:25:38.571Z,101954.72
2023-05-05T14:28:05.258Z,101955.34
2023-05-05T14:30:31.597Z,101942.69
2023-05-05T14:32:58.993Z,101953.34
2023-05-05T14:35:25.495Z,101953.63
2023-05-05T14:37:51.880Z,101956.44
2023-05-05T14:40:18.358Z,101956.69
2023-05-05T14:42:44.781Z,101956.50
2023-05-05T14:45:11.831Z,101953.59
2023-05-05T14:47:38.218Z,101953.03
2023-05-05T14:50:04.857Z,101955.31
2023-05-05T14:52:31.194Z,101946.47
2023-05-05T14:54:57.558Z,101958.00
2023-05-05T14:57:24.065Z,101945.59
2023-05-05T14:59:52.993Z,101935.88
2023-05-05T15:02:19.457Z,101936.06
2023-05-05T15:04:47.055Z,101932.00
2023-05-05T15:07:14.391Z,101932.84
2023-05-05T15:09:40.772Z,101938.81
2023-05-05T15:12:07.289Z,101936.19
2023-05-05T15:14:33.588Z,101933.78
2023-05-05T15:16:59.952Z,101933.03
2023-05-05T15:19:26.351Z,101939.03
2023-05-05T15:21:54.084Z,101938.22
2023-05-05T15:24:21.048Z,101938.03
2023-05-05T15:26:47.486Z,101932.09
2023-05-05T15:29:13.896Z,101931.03
2023-05-05T15:31:40.332Z,101944.56
2023-05-05T15:34:06.963Z,101926.75
2023-05-05T15:36:33.317Z,101923.50
2023-05-05T15:39:02.022Z,101927.53
2023-05-05T15:41:29.366Z,101937.19
2023-05-05T15:43:55.855Z,101930.25
2023-05-05T15:46:22.235Z,101926.75
2023-05-05T15:48:48.681Z,101926.84
2023-05-05T15:51:15.030Z,101928.41
2023-05-05T15:53:41.600Z,101921.13
2023-05-05T15:56:08.150Z,101914.47
2023-05-05T15:58:34.576Z,101916.19
2023-05-05T16:01:00.987Z,101918.34
2023-05-05T16:03:27.731Z,101920.09
2023-05-05T16:05:54.213Z,101922.00
2023-05-05T16:08:20.618Z,101921.16
2023-05-05T16:10:47.482Z,101920.16
2023-05-05T16:13:14.420Z,101917.66
2023-05-05T16:15:41.526Z,101919.66
2023-05-05T16:18:08.151Z,101918.81
2023-05-05T16:20:34.855Z,101918.94
2023-05-05T16:23:01.852Z,101919.69
2023-05-05T16:25:28.447Z,101916.97
2023-05-05T16:27:57.800Z,101916.28
2023-05-05T16:30:24.157Z,101914.56
2023-05-05T16:32:51.872Z,101921.63
2023-05-05T16:35:18.359Z,101914.56
2023-05-05T16:37:44.939Z,101915.38
2023-05-05T16:40:11.692Z,101909.19
2023-05-05T16:42:38.070Z,101906.78
2023-05-05T16:45:04.750Z,101907.56
2023-05-05T16:47:32.294Z,101907.66
2023-05-05T16:49:58.753Z,101908.47
2023-05-05T16:52:25.234Z,101900.78
2023-05-05T16:54:55.620Z,101901.66
2023-05-05T16:57:22.538Z,101896.41
2023-05-05T16:59:51.802Z,101899.91
2023-05-05T17:02:18.236Z,101901.63
2023-05-05T17:04:44.593Z,101908.63
2023-05-05T17:07:11.049Z,101905.16
2023-05-05T17:09:39.782Z,101903.50
2023-05-05T17:12:06.281Z,101914.84
2023-05-05T17:14:33.571Z,101907.94
2023-05-05T17:17:00.077Z,101912.31
2023-05-05T17:19:26.750Z,101901.03
2023-05-05T17:21:54.216Z,101907.06
2023-05-05T17:24:20.820Z,101899.25
2023-05-05T17:26:47.174Z,101904.44
2023-05-05T17:29:14.212Z,101903.66
2023-05-05T17:31:41.709Z,101895.84
2023-05-05T17:34:08.093Z,101901.03
2023-05-05T17:36:35.960Z,101902.78
2023-05-05T17:39:02.460Z,101899.28
2023-05-05T17:41:28.916Z,101894.06
2023-05-05T17:43:55.702Z,101901.03
2023-05-05T17:46:22.220Z,101899.31
2023-05-05T17:48:48.662Z,101905.41
2023-05-05T17:51:15.088Z,101907.66
2023-05-05T17:53:43.076Z,101899.03
2023-05-05T17:56:09.403Z,101903.50
2023-05-05T17:58:35.760Z,101911.47
2023-05-05T18:01:02.222Z,101907.97
2023-05-05T18:03:28.800Z,101910.63
2023-05-05T18:05:55.289Z,101905.41
2023-05-05T18:08:22.481Z,101905.41
2023-05-05T18:10:48.910Z,101915.03
2023-05-05T18:13:15.464Z,101908.94
2023-05-05T18:15:41.933Z,101912.41
2023-05-05T18:18:08.337Z,101911.56
2023-05-05T18:20:35.133Z,101920.25
2023-05-05T18:23:01.850Z,101915.06
2023-05-05T18:25:28.310Z,101911.56
2023-05-05T18:27:54.739Z,101912.41
2023-05-05T18:30:21.300Z,101912.41
2023-05-05T18:32:48.706Z,101915.88
2023-05-05T18:35:15.190Z,101915.91
2023-05-05T18:37:42.273Z,101913.28
2023-05-05T18:40:09.980Z,101917.63
2023-05-05T18:42:36.315Z,101921.13
2023-05-05T18:45:11.903Z,101920.25
2023-05-05T18:47:39.218Z,101914.16
2023-05-05T18:50:06.080Z,101918.53
2023-05-05T18:52:32.870Z,101922.00
2023-05-05T18:54:59.722Z,101915.88
2023-05-05T18:57:27.204Z,101919.38
2023-05-05T18:59:53.676Z,101912.44
2023-05-05T19:02:20.167Z,101916.75
2023-05-05T19:04:46.552Z,101922.88
2023-05-05T19:07:20.971Z,101918.50
2023-05-05T19:09:54.216Z,101911.56
2023-05-05T19:12:20.595Z,101913.28
2023-05-05T19:14:46.919Z,101912.41
2023-05-05T19:17:13.280Z,101909.81
2023-05-05T19:19:39.624Z,101896.75
2023-05-05T19:22:06.091Z,101895.88
2023-05-05T19:24:39.794Z,101902.84
2023-05-05T19:27:08.175Z,101905.44
2023-05-05T19:29:34.668Z,101905.44
2023-05-05T19:32:01.203Z,101904.59
2023-05-05T19:34:27.590Z,101901.97
2023-05-05T19:36:53.916Z,101908.06
2023-05-05T19:39:20.234Z,101913.28
2023-05-05T19:41:46.668Z,101911.56
2023-05-05T19:44:13.123Z,101911.53
2023-05-05T19:46:39.514Z,101910.69
2023-05-05T19:49:06.203Z,101904.59
2023-05-05T19:51:32.552Z,101905.47
2023-05-05T19:53:59.444Z,101908.09
2023-05-05T19:56:25.956Z,101916.78
2023-05-05T19:58:56.422Z,101915.88
2023-05-05T20:01:22.878Z,101911.56
2023-05-05T20:03:49.509Z,101909.81
2023-05-05T20:06:16.143Z,101911.56
2023-05-05T20:08:42.506Z,101914.16
2023-05-05T20:11:08.904Z,101910.69
2023-05-05T20:13:36.863Z,101912.44
2023-05-05T20:16:03.216Z,101913.28
2023-05-05T20:18:29.683Z,101919.41
2023-05-05T20:20:56.289Z,101916.75
2023-05-05T20:23:22.644Z,101915.03
2023-05-05T20:25:49.059Z,101911.53
2023-05-05T20:28:15.408Z,101908.94
2023-05-05T20:30:41.804Z,101915.91
2023-05-05T20:33:08.221Z,101912.41
2023-05-05T20:35:34.690Z,101912.44
2023-05-05T20:38:03.538Z,101912.41
2023-05-05T20:40:30.384Z,101913.28
2023-05-05T20:42:57.018Z,101904.59
2023-05-05T20:45:24.025Z,101903.72
2023-05-05T20:47:50.548Z,101903.72
2023-05-05T20:50:20.214Z,101903.72
2023-05-05T20:52:47.082Z,101890.66
2023-05-05T20:55:13.507Z,101896.75
2023-05-05T20:57:39.831Z,101895.03
2023-05-05T21:00:06.643Z,101892.41
2023-05-05T21:02:33.181Z,101882.81
2023-05-05T21:05:02.807Z,101887.19
2023-05-05T21:07:31.065Z,101879.38
2023-05-05T21:09:57.473Z,101895.00
2023-05-05T21:12:23.892Z,101892.41
2023-05-05T21:14:50.221Z,101890.69
2023-05-05T21:17:16.662Z,101887.19
2023-05-05T21:19:43.012Z,101881.09
2023-05-05T21:22:09.342Z,101876.75
2023-05-05T21:24:35.746Z,101881.97
2023-05-05T21:27:02.055Z,101885.44
2023-05-05T21:29:28.426Z,101890.66
2023-05-05T21:31:54.908Z,101885.44
2023-05-05T21:34:21.312Z,101891.53
2023-05-05T21:36:47.658Z,101893.25
2023-05-05T21:39:14.186Z,101896.75
2023-05-05T21:41:40.611Z,101886.31
2023-05-05T21:44:07.058Z,101882.84
2023-05-05T21:46:33.500Z,101882.84
2023-05-05T21:48:59.906Z,101881.09
2023-05-05T21:51:27.240Z,101871.53
2023-05-05T21:53:53.644Z,101857.59
2023-05-05T21:56:20.189Z,101865.44
2023-05-05T21:58:46.521Z,101862.81
2023-05-05T22:01:12.940Z,101859.34
2023-05-05T22:03:39.360Z,101858.47
2023-05-05T22:06:05.941Z,101863.72
2023-05-05T22:08:32.299Z,101860.22
2023-05-05T22:10:58.623Z,101862.81
2023-05-05T22:13:24.977Z,101861.97
2023-05-05T22:15:51.613Z,101861.94
2023-05-05T22:18:18.031Z,101872.41
2023-05-05T22:20:44.446Z,101871.53
2023-05-05T22:23:11.381Z,101868.06
2023-05-05T22:25:37.721Z,101868.94
2023-05-05T22:28:04.293Z,101856.72
2023-05-05T22:30:32.800Z,101872.38
2023-05-05T22:32:59.137Z,101868.06
2023-05-05T22:35:25.493Z,101869.78
2023-05-05T22:37:51.939Z,101862.81
2023-05-05T22:40:18.260Z,101853.25
2023-05-05T22:42:44.629Z,101848.03
2023-05-05T22:45:11.353Z,101852.38
2023-05-05T22:47:37.928Z,101854.16
2023-05-05T22:50:04.465Z,101854.13
2023-05-05T22:52:30.842Z,101847.16
2023-05-05T22:54:57.184Z,101848.03
2023-05-05T22:57:23.575Z,101841.94
2023-05-05T22:59:50.016Z,101847.16
2023-05-05T23:02:16.384Z,101842.81
2023-05-05T23:04:43.488Z,101833.28
2023-05-05T23:07:10.841Z,101841.06
2023-05-05T23:09:37.221Z,101833.25
2023-05-05T23:12:03.659Z,101828.91
2023-05-05T23:14:30.036Z,101828.03
2023-05-05T23:16:56.483Z,101826.31
2023-05-05T23:19:24.097Z,101828.03
2023-05-05T23:21:53.553Z,101828.00
2023-05-05T23:24:20.588Z,101828.03
2023-05-05T23:26:46.892Z,101821.94
2023-05-05T23:29:13.333Z,101819.34
2023-05-05T23:31:39.895Z,101819.31
2023-05-05T23:34:06.269Z,101825.41
2023-05-05T23:36:32.803Z,101824.53
2023-05-05T23:38:59.274Z,101819.31
2023-05-05T23:41:25.583Z,101813.22
2023-05-05T23:43:51.952Z,101811.50
2023-05-05T23:46:18.408Z,101812.38
2023-05-05T23:48:44.857Z,101802.81
2023-05-05T23:51:11.211Z,101808.00
2023-05-05T23:53:37.522Z,101808.88
2023-05-05T23:56:03.903Z,101806.25
2023-05-05T23:58:30.363Z,101808.84
